createdAt,value
2022-09-12T07:56:02.652Z,995.86
2022-09-12T07:57:02.174Z,995.87
2022-09-12T07:58:02.253Z,995.90
2022-09-12T07:59:02.195Z,995.90
2022-09-12T08:00:02.153Z,995.97
2022-09-12T08:01:02.221Z,995.96
2022-09-12T08:02:02.149Z,995.91
2022-09-12T08:03:02.165Z,996.00
2022-09-12T08:04:03.042Z,995.94
2022-09-12T08:05:02.547Z,995.95
2022-09-12T08:06:02.221Z,996.00
2022-09-12T08:07:02.098Z,995.93
2022-09-12T08:08:02.108Z,995.96
2022-09-12T08:09:02.108Z,995.95
2022-09-12T08:10:02.083Z,995.91
2022-09-12T08:11:02.068Z,995.93
2022-09-12T08:12:02.297Z,995.97
2022-09-12T08:13:02.102Z,995.96
2022-09-12T08:14:02.054Z,995.97
2022-09-12T08:15:02.068Z,995.97
2022-09-12T08:16:02.087Z,995.96
2022-09-12T08:17:02.054Z,996.00
2022-09-12T08:18:02.075Z,996.02
2022-09-12T08:19:02.021Z,995.98
2022-09-12T08:20:02.029Z,996.02
2022-09-12T08:21:02.054Z,996.05
2022-09-12T08:22:02.000Z,996.02
2022-09-12T08:23:02.004Z,996.03
2022-09-12T08:24:02.434Z,996.03
2022-09-12T08:25:01.981Z,996.05
2022-09-12T08:26:05.760Z,995.98
2022-09-12T08:27:01.996Z,996.03
2022-09-12T08:28:02.000Z,995.97
2022-09-12T08:29:01.975Z,996.02
2022-09-12T08:30:02.613Z,996.01
2022-09-12T08:31:02.030Z,996.05
2022-09-12T08:32:01.942Z,995.97
2022-09-12T08:33:02.090Z,995.94
2022-09-12T08:34:01.973Z,995.95
2022-09-12T08:35:01.920Z,995.96
2022-09-12T08:36:02.331Z,995.96
2022-09-12T08:37:01.967Z,995.92
2022-09-12T08:38:01.993Z,995.94
2022-09-12T08:39:01.975Z,995.95
2022-09-12T08:40:02.180Z,995.98
2022-09-12T08:41:01.889Z,995.98
2022-09-12T08:42:01.946Z,995.95
2022-09-12T08:43:01.903Z,995.94
2022-09-12T08:44:01.967Z,995.94
2022-09-12T08:45:01.856Z,995.94
2022-09-12T08:46:01.907Z,995.96
2022-09-12T08:47:01.879Z,995.92
2022-09-12T08:48:01.841Z,995.97
2022-09-12T08:49:02.288Z,995.95
2022-09-12T08:50:01.827Z,995.92
2022-09-12T08:51:01.826Z,995.91
2022-09-12T08:52:01.825Z,995.93
2022-09-12T08:53:01.837Z,995.94
2022-09-12T08:54:01.811Z,995.90
2022-09-12T08:55:02.206Z,995.91
2022-09-12T08:56:01.782Z,995.91
2022-09-12T08:57:01.785Z,995.90
2022-09-12T08:58:01.810Z,995.88
2022-09-12T08:59:01.777Z,995.87
2022-09-12T09:00:01.780Z,995.85
2022-09-12T09:01:01.789Z,995.83
2022-09-12T09:02:01.785Z,995.80
2022-09-12T09:03:01.747Z,995.81
2022-09-12T09:04:01.749Z,995.79
2022-09-12T09:05:01.751Z,995.78
2022-09-12T09:06:01.740Z,995.78
2022-09-12T09:07:01.714Z,995.73
2022-09-12T09:08:01.712Z,995.76
2022-09-12T09:09:01.719Z,995.72
2022-09-12T09:10:01.708Z,995.72
2022-09-12T09:11:01.706Z,995.77
2022-09-12T09:12:01.684Z,995.79
2022-09-12T09:13:01.730Z,995.76
2022-09-12T09:14:05.056Z,995.71
2022-09-12T09:15:01.667Z,995.67
2022-09-12T09:16:01.823Z,995.69
2022-09-12T09:17:02.098Z,995.65
2022-09-12T09:18:01.644Z,995.69
2022-09-12T09:19:01.649Z,995.63
2022-09-12T09:20:02.950Z,995.67
2022-09-12T09:21:01.652Z,995.54
2022-09-12T09:22:01.618Z,995.55
2022-09-12T09:23:01.651Z,995.58
2022-09-12T09:24:01.605Z,995.60
2022-09-12T09:25:01.599Z,995.59
2022-09-12T09:26:01.677Z,995.47
2022-09-12T09:27:01.580Z,995.52
2022-09-12T09:28:03.164Z,995.52
2022-09-12T09:29:01.600Z,995.48
2022-09-12T09:30:01.576Z,995.47
2022-09-12T09:31:01.654Z,995.47
2022-09-12T09:32:01.585Z,995.47
2022-09-12T09:33:01.548Z,995.46
2022-09-12T09:34:02.250Z,995.42
2022-09-12T09:35:01.527Z,995.47
2022-09-12T09:36:01.578Z,995.41
2022-09-12T09:37:01.518Z,995.38
2022-09-12T09:38:01.985Z,995.42
2022-09-12T09:39:01.532Z,995.45
2022-09-12T09:40:01.597Z,995.44
2022-09-12T09:41:01.505Z,995.36
2022-09-12T09:42:01.647Z,995.38
2022-09-12T09:43:01.473Z,995.38
2022-09-12T09:44:01.555Z,995.39
2022-09-12T09:45:01.513Z,995.39
2022-09-12T09:46:01.509Z,995.34
2022-09-12T09:47:01.455Z,995.36
2022-09-12T09:48:01.498Z,995.35
2022-09-12T09:49:01.867Z,995.36
2022-09-12T09:50:01.435Z,995.33
2022-09-12T09:51:01.482Z,995.35
2022-09-12T09:52:01.422Z,995.31
2022-09-12T09:53:01.406Z,995.32
2022-09-12T09:54:01.851Z,995.32
2022-09-12T09:55:01.396Z,995.31
2022-09-12T09:56:01.390Z,995.30
2022-09-12T09:57:01.481Z,995.28
2022-09-12T09:58:01.373Z,995.33
2022-09-12T09:59:01.603Z,995.30
2022-09-12T10:00:01.373Z,995.36
2022-09-12T10:01:01.419Z,995.30
2022-09-12T10:02:01.443Z,995.26
2022-09-12T10:03:01.451Z,995.24
2022-09-12T10:04:01.364Z,995.21
2022-09-12T10:05:01.360Z,995.23
2022-09-12T10:06:01.362Z,995.23
2022-09-12T10:07:01.330Z,995.19
2022-09-12T10:08:01.307Z,995.11
2022-09-12T10:09:01.311Z,995.18
2022-09-12T10:10:01.298Z,995.11
2022-09-12T10:11:01.730Z,995.06
2022-09-12T10:12:01.289Z,995.03
2022-09-12T10:13:01.278Z,995.11
2022-09-12T10:14:01.274Z,995.02
2022-09-12T10:15:01.259Z,995.06
2022-09-12T10:16:01.314Z,995.05
2022-09-12T10:17:01.407Z,995.10
2022-09-12T10:18:01.252Z,995.06
2022-09-12T10:19:01.238Z,995.05
2022-09-12T10:20:22.197Z,995.07
2022-09-12T10:21:02.223Z,995.06
2022-09-12T10:22:01.232Z,995.09
2022-09-12T10:23:01.210Z,995.12
2022-09-12T10:24:01.203Z,995.06
2022-09-12T10:25:01.189Z,995.06
2022-09-12T10:26:01.186Z,995.05
2022-09-12T10:27:01.174Z,995.02
2022-09-12T10:28:01.653Z,995.04
2022-09-12T10:29:01.175Z,995.04
2022-09-12T10:30:01.178Z,995.05
2022-09-12T10:31:01.236Z,995.07
2022-09-12T10:32:01.185Z,995.07
2022-09-12T10:33:01.134Z,995.09
2022-09-12T10:34:01.144Z,995.06
2022-09-12T10:35:01.121Z,995.04
2022-09-12T10:36:01.140Z,995.01
2022-09-12T10:37:01.120Z,995.03
2022-09-12T10:38:01.112Z,995.02
2022-09-12T10:39:01.654Z,995.00
2022-09-12T10:40:01.173Z,995.05
2022-09-12T10:41:01.085Z,995.02
2022-09-12T10:42:01.087Z,995.01
2022-09-12T10:43:01.073Z,994.99
2022-09-12T10:44:01.053Z,995.00
2022-09-12T10:45:01.068Z,994.95
2022-09-12T10:46:01.119Z,994.99
2022-09-12T10:47:01.466Z,994.98
2022-09-12T10:48:06.758Z,994.90
2022-09-12T10:49:02.019Z,994.95
2022-09-12T10:50:01.012Z,994.93
2022-09-12T10:51:01.179Z,994.89
2022-09-12T10:52:01.043Z,994.91
2022-09-12T10:53:01.004Z,994.93
2022-09-12T10:54:01.159Z,994.92
2022-09-12T10:55:00.976Z,994.85
2022-09-12T10:56:01.019Z,994.87
2022-09-12T10:57:00.989Z,994.87
2022-09-12T10:58:00.967Z,994.89
2022-09-12T10:59:00.958Z,994.88
2022-09-12T11:00:01.398Z,994.94
2022-09-12T11:01:01.023Z,994.86
2022-09-12T11:02:00.983Z,994.90
2022-09-12T11:03:00.921Z,994.87
2022-09-12T11:04:00.915Z,994.87
2022-09-12T11:05:00.932Z,994.79
2022-09-12T11:06:00.937Z,994.80
2022-09-12T11:07:01.818Z,994.82
2022-09-12T11:08:00.929Z,994.80
2022-09-12T11:09:01.433Z,994.80
2022-09-12T11:10:00.874Z,994.77
2022-09-12T11:11:00.871Z,994.81
2022-09-12T11:12:00.860Z,994.74
2022-09-12T11:13:00.856Z,994.79
2022-09-12T11:14:00.836Z,994.81
2022-09-12T11:15:01.459Z,994.82
2022-09-12T11:16:01.233Z,994.77
2022-09-12T11:17:00.815Z,994.80
2022-09-12T11:18:00.839Z,994.73
2022-09-12T11:19:00.840Z,994.80
2022-09-12T11:20:00.793Z,994.77
2022-09-12T11:21:00.785Z,994.77
2022-09-12T11:22:00.838Z,994.73
2022-09-12T11:23:00.775Z,994.74
2022-09-12T11:24:00.788Z,994.72
2022-09-12T11:25:00.764Z,994.69
2022-09-12T11:26:00.751Z,994.60
2022-09-12T11:27:00.740Z,994.70
2022-09-12T11:28:01.928Z,994.70
2022-09-12T11:29:01.175Z,994.66
2022-09-12T11:30:00.729Z,994.62
2022-09-12T11:31:00.865Z,994.61
2022-09-12T11:32:00.705Z,994.60
2022-09-12T11:33:02.457Z,994.61
2022-09-12T11:34:00.690Z,994.57
2022-09-12T11:35:00.681Z,994.60
2022-09-12T11:36:00.710Z,994.61
2022-09-12T11:37:00.684Z,994.60
2022-09-12T11:38:00.659Z,994.64
2022-09-12T11:39:01.192Z,994.61
2022-09-12T11:40:00.714Z,994.65
2022-09-12T11:41:00.705Z,994.63
2022-09-12T11:42:00.643Z,994.67
2022-09-12T11:43:01.083Z,994.63
2022-09-12T11:44:00.616Z,994.63
2022-09-12T11:45:00.659Z,994.62
2022-09-12T11:46:00.620Z,994.64
2022-09-12T11:47:00.626Z,994.65
2022-09-12T11:48:00.641Z,994.61
2022-09-12T11:49:00.607Z,994.62
2022-09-12T11:50:00.600Z,994.53
2022-09-12T11:51:00.573Z,994.58
2022-09-12T11:52:00.600Z,994.55
2022-09-12T11:53:00.558Z,994.62
2022-09-12T11:54:00.548Z,994.59
2022-09-12T11:55:00.550Z,994.64
2022-09-12T11:56:00.552Z,994.61
2022-09-12T11:57:00.542Z,994.60
2022-09-12T11:58:00.562Z,994.57
2022-09-12T11:59:00.545Z,994.54
2022-09-12T12:00:00.501Z,994.51
2022-09-12T12:01:00.944Z,994.54
2022-09-12T12:02:00.524Z,994.50
2022-09-12T12:03:01.160Z,994.54
2022-09-12T12:04:00.490Z,994.49
2022-09-12T12:05:00.464Z,994.50
2022-09-12T12:06:00.454Z,994.55
2022-09-12T12:07:00.454Z,994.49
2022-09-12T12:08:00.444Z,994.48
2022-09-12T12:09:00.648Z,994.46
2022-09-12T12:10:00.423Z,994.48
2022-09-12T12:11:00.440Z,994.44
2022-09-12T12:12:00.444Z,994.44
2022-09-12T12:13:00.409Z,994.37
2022-09-12T12:14:00.404Z,994.39
2022-09-12T12:15:00.397Z,994.45
2022-09-12T12:16:00.853Z,994.43
2022-09-12T12:17:00.380Z,994.36
2022-09-12T12:18:00.358Z,994.43
2022-09-12T12:19:00.833Z,994.38
2022-09-12T12:20:04.986Z,994.31
2022-09-12T12:21:01.340Z,994.31
2022-09-12T12:22:00.360Z,994.36
2022-09-12T12:23:00.333Z,994.35
2022-09-12T12:24:00.672Z,994.25
2022-09-12T12:25:00.314Z,994.27
2022-09-12T12:26:00.311Z,994.25
2022-09-12T12:27:00.327Z,994.17
2022-09-12T12:28:00.314Z,994.23
2022-09-12T12:29:00.344Z,994.21
2022-09-12T12:30:00.286Z,994.25
2022-09-12T12:31:00.348Z,994.21
2022-09-12T12:32:00.264Z,994.23
2022-09-12T12:33:00.652Z,994.19
2022-09-12T12:34:00.250Z,994.27
2022-09-12T12:35:00.265Z,994.23
2022-09-12T12:36:00.234Z,994.16
2022-09-12T12:37:04.318Z,994.28
2022-09-12T12:38:01.382Z,994.30
2022-09-12T12:39:00.226Z,994.24
2022-09-12T12:40:00.373Z,994.22
2022-09-12T12:41:00.193Z,994.22
2022-09-12T12:42:00.190Z,994.18
2022-09-12T12:43:00.190Z,994.19
2022-09-12T12:44:00.206Z,994.22
2022-09-12T12:45:00.182Z,994.22
2022-09-12T12:46:00.238Z,994.17
2022-09-12T12:47:00.206Z,994.23
2022-09-12T12:48:00.159Z,994.20
2022-09-12T12:49:00.133Z,994.19
2022-09-12T12:50:01.349Z,994.20
2022-09-12T12:51:00.129Z,994.19
2022-09-12T12:52:00.119Z,994.16
2022-09-12T12:53:00.122Z,994.13
2022-09-12T12:54:00.105Z,994.08
2022-09-12T12:55:00.121Z,994.10
2022-09-12T12:56:00.527Z,994.01
2022-09-12T12:57:00.100Z,994.04
2022-09-12T12:58:00.084Z,993.99
2022-09-12T12:59:00.062Z,994.06
2022-09-12T13:00:00.086Z,994.04
2022-09-12T13:01:00.044Z,994.04
2022-09-12T13:02:00.144Z,994.03
2022-09-12T13:03:00.047Z,994.02
2022-09-12T13:04:00.732Z,994.01
2022-09-12T13:05:00.025Z,994.04
2022-09-12T13:06:00.006Z,994.00
2022-09-12T13:07:02.537Z,994.05
2022-09-12T13:08:00.012Z,993.97
2022-09-12T13:09:00.030Z,993.96
2022-09-12T13:09:59.982Z,993.95
2022-09-12T13:10:59.977Z,993.93
2022-09-12T13:11:59.991Z,993.95
2022-09-12T13:12:59.956Z,993.95
2022-09-12T13:14:00.016Z,993.91
2022-09-12T13:14:59.980Z,993.84
2022-09-12T13:16:00.004Z,993.89
2022-09-12T13:16:59.930Z,993.89
2022-09-12T13:18:00.674Z,993.88
2022-09-12T13:18:59.940Z,993.83
2022-09-12T13:20:23.764Z,993.83
2022-09-12T13:21:00.895Z,993.80
2022-09-12T13:21:59.891Z,993.71
2022-09-12T13:22:59.887Z,993.76
2022-09-12T13:24:01.731Z,993.70
2022-09-12T13:24:59.870Z,993.71
2022-09-12T13:25:59.854Z,993.67
2022-09-12T13:26:59.849Z,993.67
2022-09-12T13:27:59.854Z,993.58
2022-09-12T13:28:59.855Z,993.67
2022-09-12T13:30:00.836Z,993.64
2022-09-12T13:30:59.893Z,993.62
2022-09-12T13:31:59.843Z,993.65
2022-09-12T13:32:59.811Z,993.59
2022-09-12T13:33:59.830Z,993.55
2022-09-12T13:35:01.072Z,993.57
2022-09-12T13:35:59.779Z,993.48
2022-09-12T13:36:59.802Z,993.52
2022-09-12T13:37:59.767Z,993.54
2022-09-12T13:39:00.445Z,993.49
2022-09-12T13:39:59.835Z,993.42
2022-09-12T13:40:59.743Z,993.42
2022-09-12T13:41:59.744Z,993.47
2022-09-12T13:42:59.773Z,993.39
2022-09-12T13:43:59.733Z,993.46
2022-09-12T13:44:59.727Z,993.46
2022-09-12T13:45:59.836Z,993.44
2022-09-12T13:47:00.121Z,993.37
2022-09-12T13:47:59.719Z,993.38
2022-09-12T13:48:59.734Z,993.39
2022-09-12T13:49:59.723Z,993.35
2022-09-12T13:50:59.699Z,993.40
2022-09-12T13:51:59.660Z,993.34
2022-09-12T13:52:59.666Z,993.34
2022-09-12T13:53:59.662Z,993.35
2022-09-12T13:54:59.681Z,993.37
2022-09-12T13:55:59.645Z,993.36
2022-09-12T13:56:59.646Z,993.31
2022-09-12T13:58:00.051Z,993.42
2022-09-12T13:58:59.611Z,993.38
2022-09-12T13:59:59.602Z,993.33
2022-09-12T14:00:59.636Z,993.30
2022-09-12T14:01:59.640Z,993.32
2022-09-12T14:02:59.710Z,993.31
2022-09-12T14:03:59.605Z,993.29
2022-09-12T14:04:59.567Z,993.27
2022-09-12T14:05:59.621Z,993.19
2022-09-12T14:06:59.561Z,993.27
2022-09-12T14:07:59.642Z,993.23
2022-09-12T14:08:59.562Z,993.27
2022-09-12T14:10:00.183Z,993.19
2022-09-12T14:10:59.519Z,993.25
2022-09-12T14:11:59.519Z,993.25
2022-09-12T14:12:59.527Z,993.14
2022-09-12T14:13:59.537Z,993.13
2022-09-12T14:15:00.024Z,993.14
2022-09-12T14:15:59.499Z,993.12
2022-09-12T14:16:59.475Z,993.10
2022-09-12T14:17:59.468Z,993.09
2022-09-12T14:19:00.053Z,993.10
2022-09-12T14:19:59.495Z,993.14
2022-09-12T14:20:59.452Z,993.10
2022-09-12T14:21:59.446Z,993.11
2022-09-12T14:22:59.430Z,993.11
2022-09-12T14:23:59.430Z,993.07
2022-09-12T14:25:00.597Z,993.07
2022-09-12T14:25:59.428Z,993.06
2022-09-12T14:26:59.460Z,993.04
2022-09-12T14:27:59.400Z,993.06
2022-09-12T14:28:59.396Z,993.01
2022-09-12T14:29:59.446Z,992.99
2022-09-12T14:31:00.370Z,992.96
2022-09-12T14:31:59.378Z,992.98
2022-09-12T14:32:59.368Z,992.99
2022-09-12T14:33:59.354Z,992.95
2022-09-12T14:34:59.351Z,992.86
2022-09-12T14:35:59.377Z,992.88
2022-09-12T14:36:59.323Z,992.85
2022-09-12T14:37:59.317Z,992.87
2022-09-12T14:38:59.345Z,992.88
2022-09-12T14:39:59.392Z,992.87
2022-09-12T14:40:59.316Z,992.82
2022-09-12T14:41:59.294Z,992.84
2022-09-12T14:43:01.271Z,992.83
2022-09-12T14:43:59.293Z,992.81
2022-09-12T14:44:59.266Z,992.80
2022-09-12T14:46:00.177Z,992.76
2022-09-12T14:46:59.730Z,992.74
2022-09-12T14:47:59.266Z,992.81
2022-09-12T14:48:59.452Z,992.76
2022-09-12T14:49:59.257Z,992.67
2022-09-12T14:50:59.230Z,992.63
2022-09-12T14:51:59.249Z,992.62
2022-09-12T14:52:59.272Z,992.60
2022-09-12T14:53:59.205Z,992.64
2022-09-12T14:54:59.198Z,992.65
2022-09-12T14:55:59.187Z,992.67
2022-09-12T14:56:59.199Z,992.65
2022-09-12T14:57:59.188Z,992.69
2022-09-12T14:58:59.969Z,992.72
2022-09-12T14:59:59.189Z,992.61
2022-09-12T15:00:59.147Z,992.56
2022-09-12T15:01:59.203Z,992.59
2022-09-12T15:02:59.154Z,992.55
2022-09-12T15:03:59.152Z,992.63
2022-09-12T15:04:59.118Z,992.57
2022-09-12T15:05:59.115Z,992.57
2022-09-12T15:06:59.110Z,992.59
2022-09-12T15:07:59.125Z,992.55
2022-09-12T15:08:59.840Z,992.66
2022-09-12T15:09:59.089Z,992.59
2022-09-12T15:10:59.089Z,992.74
2022-09-12T15:11:59.075Z,992.70
2022-09-12T15:12:59.058Z,992.73
2022-09-12T15:13:59.054Z,992.70
2022-09-12T15:14:59.052Z,992.67
2022-09-12T15:15:59.532Z,992.58
2022-09-12T15:16:59.055Z,992.64
2022-09-12T15:18:01.415Z,992.62
2022-09-12T15:19:00.032Z,992.53
2022-09-12T15:19:59.015Z,992.57
2022-09-12T15:20:59.020Z,992.54
2022-09-12T15:21:59.003Z,992.51
2022-09-12T15:22:59.409Z,992.55
2022-09-12T15:23:59.039Z,992.55
2022-09-12T15:24:58.968Z,992.54
2022-09-12T15:25:59.045Z,992.52
2022-09-12T15:26:58.969Z,992.56
2022-09-12T15:27:58.948Z,992.53
2022-09-12T15:28:58.960Z,992.54
2022-09-12T15:29:58.956Z,992.49
2022-09-12T15:30:59.014Z,992.49
2022-09-12T15:31:58.964Z,992.52
2022-09-12T15:32:58.920Z,992.52
2022-09-12T15:33:59.940Z,992.51
2022-09-12T15:34:58.956Z,992.44
2022-09-12T15:35:58.894Z,992.48
2022-09-12T15:36:59.308Z,992.44
2022-09-12T15:37:58.924Z,992.50
2022-09-12T15:38:58.884Z,992.46
2022-09-12T15:39:58.958Z,992.42
2022-09-12T15:40:58.857Z,992.46
2022-09-12T15:41:58.852Z,992.39
2022-09-12T15:42:58.869Z,992.42
2022-09-12T15:43:58.835Z,992.38
2022-09-12T15:45:02.379Z,992.39
2022-09-12T15:45:58.871Z,992.48
2022-09-12T15:46:58.813Z,992.37
2022-09-12T15:47:58.806Z,992.42
2022-09-12T15:48:59.556Z,992.44
2022-09-12T15:49:58.791Z,992.38
2022-09-12T15:50:58.776Z,992.41
2022-09-12T15:51:58.770Z,992.42
2022-09-12T15:52:58.771Z,992.37
2022-09-12T15:53:58.764Z,992.39
2022-09-12T15:54:58.933Z,992.41
2022-09-12T15:55:58.801Z,992.39
2022-09-12T15:56:58.741Z,992.41
2022-09-12T15:57:58.726Z,992.39
2022-09-12T15:59:00.110Z,992.37
2022-09-12T15:59:58.728Z,992.39
2022-09-12T16:00:58.745Z,992.34
2022-09-12T16:01:58.749Z,992.36
2022-09-12T16:02:58.732Z,992.32
2022-09-12T16:03:58.715Z,992.36
2022-09-12T16:04:58.676Z,992.35
2022-09-12T16:05:58.681Z,992.40
2022-09-12T16:06:58.666Z,992.35
2022-09-12T16:07:58.658Z,992.32
2022-09-12T16:08:58.651Z,992.37
2022-09-12T16:10:00.214Z,992.36
2022-09-12T16:10:58.636Z,992.28
2022-09-12T16:11:58.656Z,992.34
2022-09-12T16:12:58.622Z,992.29
2022-09-12T16:13:58.616Z,992.24
2022-09-12T16:14:58.614Z,992.25
2022-09-12T16:15:58.674Z,992.25
2022-09-12T16:16:58.591Z,992.29
2022-09-12T16:17:58.576Z,992.23
2022-09-12T16:18:58.608Z,992.23
2022-09-12T16:19:58.669Z,992.21
2022-09-12T16:20:58.571Z,992.21
2022-09-12T16:21:58.561Z,992.15
2022-09-12T16:22:58.546Z,992.14
2022-09-12T16:23:58.585Z,992.14
2022-09-12T16:24:58.538Z,992.11
2022-09-12T16:25:59.395Z,992.15
2022-09-12T16:27:01.305Z,992.14
2022-09-12T16:27:58.604Z,992.12
2022-09-12T16:28:58.497Z,992.07
2022-09-12T16:29:58.517Z,992.10
2022-09-12T16:30:58.732Z,992.15
2022-09-12T16:31:58.509Z,992.13
2022-09-12T16:33:19.666Z,992.15
2022-09-12T16:33:58.494Z,992.08
2022-09-12T16:34:58.974Z,992.13
2022-09-12T16:35:58.467Z,992.05
2022-09-12T16:36:58.454Z,991.97
2022-09-12T16:37:58.427Z,991.97
2022-09-12T16:38:58.431Z,991.96
2022-09-12T16:39:58.532Z,991.96
2022-09-12T16:40:58.475Z,991.97
2022-09-12T16:41:58.533Z,991.94
2022-09-12T16:42:58.405Z,991.93
2022-09-12T16:43:59.077Z,991.96
2022-09-12T16:44:58.386Z,991.90
2022-09-12T16:45:58.436Z,991.85
2022-09-12T16:46:58.364Z,991.83
2022-09-12T16:47:58.388Z,991.78
2022-09-12T16:48:58.370Z,991.73
2022-09-12T16:49:58.344Z,991.75
2022-09-12T16:50:58.347Z,991.76
2022-09-12T16:51:58.375Z,991.70
2022-09-12T16:52:58.332Z,991.67
2022-09-12T16:53:58.324Z,991.68
2022-09-12T16:54:58.308Z,991.65
2022-09-12T16:55:58.451Z,991.65
2022-09-12T16:56:58.765Z,991.60
2022-09-12T16:57:58.319Z,991.67
2022-09-12T16:58:58.279Z,991.64
2022-09-12T16:59:58.301Z,991.66
2022-09-12T17:00:58.313Z,991.62
2022-09-12T17:01:58.311Z,991.62
2022-09-12T17:02:58.698Z,991.67
2022-09-12T17:03:58.283Z,991.68
2022-09-12T17:04:58.233Z,991.63
2022-09-12T17:05:58.256Z,991.64
2022-09-12T17:06:58.215Z,991.65
2022-09-12T17:07:58.222Z,991.61
2022-09-12T17:08:58.213Z,991.58
2022-09-12T17:09:58.242Z,991.61
2022-09-12T17:10:38.203Z,991.62
2022-09-12T17:11:38.796Z,991.65
2022-09-12T17:12:38.192Z,991.63
2022-09-12T17:14:02.748Z,991.69
2022-09-12T17:14:39.113Z,991.65
2022-09-12T17:15:38.163Z,991.64
2022-09-12T17:16:38.095Z,991.56
2022-09-12T17:17:38.513Z,991.57
2022-09-12T17:18:38.281Z,991.50
2022-09-12T17:19:38.156Z,991.53
2022-09-12T17:20:38.687Z,991.49
2022-09-12T17:21:38.081Z,991.50
2022-09-12T17:22:38.114Z,991.46
2022-09-12T17:23:38.078Z,991.53
2022-09-12T17:24:38.082Z,991.51
2022-09-12T17:25:38.040Z,991.51
2022-09-12T17:26:38.107Z,991.46
2022-09-12T17:27:38.036Z,991.49
2022-09-12T17:28:38.002Z,991.51
2022-09-12T17:29:38.013Z,991.49
2022-09-12T17:30:38.698Z,991.49
2022-09-12T17:31:38.193Z,991.54
2022-09-12T17:32:37.976Z,991.55
2022-09-12T17:33:37.970Z,991.54
2022-09-12T17:34:37.965Z,991.55
2022-09-12T17:35:38.005Z,991.53
2022-09-12T17:36:38.289Z,991.53
2022-09-12T17:37:37.997Z,991.48
2022-09-12T17:38:37.930Z,991.47
2022-09-12T17:39:37.918Z,991.51
2022-09-12T17:40:58.535Z,991.47
2022-09-12T17:41:38.956Z,991.47
2022-09-12T17:42:37.978Z,991.55
2022-09-12T17:43:37.894Z,991.56
2022-09-12T17:44:37.918Z,991.57
2022-09-12T17:45:37.895Z,991.58
2022-09-12T17:46:38.027Z,991.60
2022-09-12T17:47:37.997Z,991.59
2022-09-12T17:48:37.889Z,991.58
2022-09-12T17:49:37.872Z,991.60
2022-09-12T17:50:39.412Z,991.55
2022-09-12T17:51:37.841Z,991.58
2022-09-12T17:52:37.849Z,991.61
2022-09-12T17:53:37.833Z,991.66
2022-09-12T17:54:37.831Z,991.64
2022-09-12T17:55:37.807Z,991.64
2022-09-12T17:56:37.817Z,991.63
2022-09-12T17:57:37.812Z,991.71
2022-09-12T17:58:37.801Z,991.72
2022-09-12T17:59:37.789Z,991.70
2022-09-12T18:00:37.769Z,991.72
2022-09-12T18:01:37.823Z,991.66
2022-09-12T18:02:38.249Z,991.71
2022-09-12T18:03:37.768Z,991.73
2022-09-12T18:04:37.754Z,991.67
2022-09-12T18:05:37.723Z,991.63
2022-09-12T18:06:37.733Z,991.63
2022-09-12T18:07:42.100Z,991.59
2022-09-12T18:08:38.706Z,991.61
2022-09-12T18:09:37.702Z,991.58
2022-09-12T18:10:37.689Z,991.63
2022-09-12T18:11:37.683Z,991.61
2022-09-12T18:12:37.817Z,991.57
2022-09-12T18:13:37.667Z,991.55
2022-09-12T18:14:37.716Z,991.53
2022-09-12T18:15:37.715Z,991.55
2022-09-12T18:16:37.650Z,991.51
2022-09-12T18:17:37.689Z,991.55
2022-09-12T18:18:37.680Z,991.56
2022-09-12T18:19:38.402Z,991.52
2022-09-12T18:20:37.622Z,991.56
2022-09-12T18:21:38.925Z,991.54
2022-09-12T18:22:37.610Z,991.46
2022-09-12T18:23:37.599Z,991.50
2022-09-12T18:24:37.685Z,991.56
2022-09-12T18:25:37.584Z,991.52
2022-09-12T18:26:37.574Z,991.60
2022-09-12T18:27:37.787Z,991.63
2022-09-12T18:28:37.682Z,991.65
2022-09-12T18:29:37.582Z,991.64
2022-09-12T18:30:37.548Z,991.69
2022-09-12T18:31:37.569Z,991.66
2022-09-12T18:32:37.588Z,991.69
2022-09-12T18:33:37.523Z,991.68
2022-09-12T18:34:37.520Z,991.72
2022-09-12T18:35:37.533Z,991.64
2022-09-12T18:36:37.530Z,991.67
2022-09-12T18:37:37.964Z,991.68
2022-09-12T18:38:37.512Z,991.69
2022-09-12T18:39:37.527Z,991.64
2022-09-12T18:40:37.512Z,991.70
2022-09-12T18:41:37.461Z,991.65
2022-09-12T18:42:37.530Z,991.66
2022-09-12T18:43:37.481Z,991.64
2022-09-12T18:44:37.469Z,991.65
2022-09-12T18:45:37.435Z,991.66
2022-09-12T18:46:37.501Z,991.65
2022-09-12T18:47:37.438Z,991.68
2022-09-12T18:48:37.735Z,991.67
2022-09-12T18:49:37.607Z,991.64
2022-09-12T18:50:37.422Z,991.67
2022-09-12T18:51:37.568Z,991.66
2022-09-12T18:52:48.789Z,991.68
2022-09-12T18:53:37.438Z,991.67
2022-09-12T18:54:37.437Z,991.62
2022-09-12T18:55:37.364Z,991.73
2022-09-12T18:56:37.366Z,991.67
2022-09-12T18:57:37.547Z,991.61
2022-09-12T18:58:37.340Z,991.66
2022-09-12T18:59:37.342Z,991.71
2022-09-12T19:00:37.373Z,991.68
2022-09-12T19:01:37.496Z,991.73
2022-09-12T19:02:37.330Z,991.74
2022-09-12T19:03:37.298Z,991.75
2022-09-12T19:04:37.362Z,991.69
2022-09-12T19:05:37.285Z,991.77
2022-09-12T19:06:37.288Z,991.74
2022-09-12T19:07:37.329Z,991.69
2022-09-12T19:08:37.272Z,991.73
2022-09-12T19:09:37.306Z,991.70
2022-09-12T19:10:37.822Z,991.72
2022-09-12T19:11:37.243Z,991.65
2022-09-12T19:12:37.252Z,991.69
2022-09-12T19:13:37.226Z,991.57
2022-09-12T19:14:37.240Z,991.58
2022-09-12T19:15:37.252Z,991.58
2022-09-12T19:16:37.836Z,991.60
2022-09-12T19:17:37.207Z,991.58
2022-09-12T19:18:37.217Z,991.57
2022-09-12T19:19:40.462Z,991.50
2022-09-12T19:20:37.225Z,991.55
2022-09-12T19:21:37.172Z,991.55
2022-09-12T19:22:37.625Z,991.55
2022-09-12T19:23:37.279Z,991.55
2022-09-12T19:24:37.153Z,991.49
2022-09-12T19:25:37.183Z,991.48
2022-09-12T19:26:37.167Z,991.49
2022-09-12T19:27:37.126Z,991.46
2022-09-12T19:28:37.146Z,991.44
2022-09-12T19:29:37.154Z,991.47
2022-09-12T19:30:37.838Z,991.48
2022-09-12T19:31:37.148Z,991.45
2022-09-12T19:32:37.085Z,991.54
2022-09-12T19:33:37.175Z,991.53
2022-09-12T19:34:37.526Z,991.52
2022-09-12T19:35:37.096Z,991.49
2022-09-12T19:36:46.241Z,991.49
2022-09-12T19:37:38.047Z,991.48
2022-09-12T19:38:37.057Z,991.46
2022-09-12T19:39:37.057Z,991.45
2022-09-12T19:40:37.043Z,991.40
2022-09-12T19:41:37.176Z,991.42
2022-09-12T19:42:37.190Z,991.42
2022-09-12T19:43:37.051Z,991.45
2022-09-12T19:44:37.234Z,991.36
2022-09-12T19:45:37.182Z,991.44
2022-09-12T19:46:37.110Z,991.42
2022-09-12T19:47:37.039Z,991.38
2022-09-12T19:48:36.995Z,991.39
2022-09-12T19:49:37.048Z,991.39
2022-09-12T19:50:37.031Z,991.39
2022-09-12T19:51:36.950Z,991.41
2022-09-12T19:52:37.320Z,991.39
2022-09-12T19:53:36.973Z,991.44
2022-09-12T19:54:37.591Z,991.39
2022-09-12T19:55:37.037Z,991.35
2022-09-12T19:56:37.340Z,991.36
2022-09-12T19:57:36.909Z,991.38
2022-09-12T19:58:37.009Z,991.30
2022-09-12T19:59:36.920Z,991.37
2022-09-12T20:00:36.872Z,991.41
2022-09-12T20:01:37.270Z,991.38
2022-09-12T20:02:36.935Z,991.38
2022-09-12T20:03:36.920Z,991.34
2022-09-12T20:04:36.916Z,991.33
2022-09-12T20:05:42.017Z,991.24
2022-09-12T20:06:37.961Z,991.23
2022-09-12T20:07:36.824Z,991.23
2022-09-12T20:08:36.901Z,991.19
2022-09-12T20:09:36.829Z,991.20
2022-09-12T20:10:36.835Z,991.09
2022-09-12T20:11:36.909Z,991.13
2022-09-12T20:12:36.793Z,991.19
2022-09-12T20:13:36.793Z,991.17
2022-09-12T20:14:36.785Z,991.19
2022-09-12T20:15:36.837Z,991.11
2022-09-12T20:16:36.828Z,991.18
2022-09-12T20:17:36.800Z,991.23
2022-09-12T20:18:36.767Z,991.22
2022-09-12T20:19:36.731Z,991.19
2022-09-12T20:20:36.788Z,991.22
2022-09-12T20:21:36.773Z,991.20
2022-09-12T20:22:39.888Z,991.19
2022-09-12T20:23:36.736Z,991.20